Time;durP1;ratioP1;P1;durP2;ratioP2;P2;SDS_P1;SDS_P2;PMS_P1;PMS_P2;Temp;Humidity;BMP_temperature;BMP_pressure;BME280_temperature;BME280_humidity;BME280_pressure;Samples;Min_cycle;Max_cycle;Signal;HPM_P1;HPM_P2
2021/03/28 00:01:16;;;;;;;;;;;;;;;7.55;100.00;98856.25;5087244;28;19924;-86
2021/03/28 00:04:03;;;;;;;;;;;;;;;7.55;100.00;98862.59;5094754;28;19923;-85
2021/03/28 00:06:32;;;;;;;;;;;;;;;7.55;100.00;98862.59;5079094;28;19924;-86
2021/03/28 00:09:07;;;;;;;;;;;;;;;7.60;100.00;98859.41;5099419;28;19924;-86
2021/03/28 00:11:36;;;;;;;;;;;;;;;7.57;100.00;98863.00;5082439;28;19931;-86
2021/03/28 00:14:03;;;;;;;;;;;;;;;7.57;100.00;98849.09;5102510;27;19923;-86
2021/03/28 00:16:32;;;;;;;;;;;;;;;7.54;100.00;98847.13;5107997;28;19924;-86
2021/03/28 00:19:18;;;;;;;;;;;;;;;7.52;100.00;98846.75;5099377;28;19930;-86
2021/03/28 00:21:53;;;;;;;;;;;;;;;7.50;100.00;98835.22;5091923;28;20073;-86
2021/03/28 00:24:22;;;;;;;;;;;;;;;7.47;100.00;98844.38;5099235;28;19931;-86
2021/03/28 00:27:08;;;;;;;;;;;;;;;7.48;100.00;98840.44;5082142;28;19923;-86
2021/03/28 00:29:44;;;;;;;;;;;;;;;7.47;100.00;98849.94;5072755;27;19930;-86
2021/03/28 00:32:15;;;;;;;;;;;;;;;7.43;100.00;98843.63;5087678;28;19924;-86
2021/03/28 00:34:45;;;;;;;;;;;;;;;7.40;100.00;98830.53;5099325;28;19947;-87
2021/03/28 00:37:11;;;;;;;;;;;;;;;7.44;100.00;98834.06;5112937;27;19951;-86
2021/03/28 00:39:45;;;;;;;;;;;;;;;7.48;100.00;98818.19;5081788;28;19935;-86
2021/03/28 00:42:21;;;;;;;;;;;;;;;7.47;100.00;98810.25;5074925;28;19931;-86
2021/03/28 00:45:17;;;;;;;;;;;;;;;7.45;100.00;98807.09;5112768;28;19932;-87
2021/03/28 00:47:59;;;;;;;;;;;;;;;7.46;100.00;98803.88;5075614;28;20081;-86
2021/03/28 00:50:28;;;;;;;;;;;;;;;7.39;100.00;98798.41;5100467;27;19924;-86
2021/03/28 00:52:57;;;;;;;;;;;;;;;7.47;100.00;98793.56;5131718;27;19930;-86
2021/03/28 00:55:35;;;;;;;;;;;;;;;7.43;100.00;98790.00;5083554;28;19924;-86
2021/03/28 00:58:05;;;;;;;;;;;;;;;7.47;100.00;98788.78;5112525;27;20010;-86
2021/03/28 01:00:50;;;;;;;;;;;;;;;7.49;100.00;98768.91;5084683;28;19924;-86
2021/03/28 01:03:33;;;;;;;;;;;;;;;7.49;100.00;98764.16;5081592;28;19923;-86
2021/03/28 01:06:21;;;;;;;;;;;;;;;7.49;100.00;98755.81;5098038;28;20030;-86
2021/03/28 01:08:58;;;;;;;;;;;;;;;7.49;100.00;98750.25;5102168;27;19927;-86
2021/03/28 01:11:42;;;;;;;;;;;;;;;7.49;100.00;98750.25;5106917;28;19924;-87
2021/03/28 01:14:27;;;;;;;;;;;;;;;7.52;100.00;98751.41;5104502;27;20389;-86
2021/03/28 01:17:00;;;;;;;;;;;;;;;7.55;100.00;98745.03;5103360;28;19923;-86
2021/03/28 01:19:32;;;;;;;;;;;;;;;7.54;100.00;98737.91;5080860;27;19924;-86
2021/03/28 01:22:08;;;;;;;;;;;;;;;7.51;100.00;98742.31;5097892;28;19923;-86
2021/03/28 01:24:46;;;;;;;;;;;;;;;7.49;100.00;98747.47;5058283;28;19931;-87
2021/03/28 01:27:19;;;;;;;;;;;;;;;7.43;100.00;98743.56;5097452;28;20012;-86
2021/03/28 01:29:48;;;;;;;;;;;;;;;7.47;100.00;98737.97;5119732;27;19930;-86
2021/03/28 01:32:24;;;;;;;;;;;;;;;7.44;100.00;98722.88;5091091;28;20328;-86
2021/03/28 01:35:17;;;;;;;;;;;;;;;7.48;100.00;98712.53;5070338;27;19924;-85
2021/03/28 01:37:44;;;;;;;;;;;;;;;7.52;100.00;98713.28;5086041;28;19928;-86
2021/03/28 01:40:24;;;;;;;;;;;;;;;7.48;100.00;98712.53;5064347;28;19923;-85
2021/03/28 01:42:50;;;;;;;;;;;;;;;7.50;100.00;98703.78;5111260;28;19924;-85
2021/03/28 01:45:40;;;;;;;;;;;;;;;7.56;100.00;98722.38;5060531;28;20023;-86
2021/03/28 01:48:12;;;;;;;;;;;;;;;7.59;100.00;98695.75;5032484;28;20036;-86
2021/03/28 01:50:57;;;;;;;;;;;;;;;7.61;100.00;98721.16;5003976;28;20410;-86
2021/03/28 01:53:45;;;;;;;;;;;;;;;7.60;100.00;98714.81;5001050;28;19933;-86
2021/03/28 01:56:17;;;;;;;;;;;;;;;7.65;100.00;98703.22;5006852;28;20403;-86
2021/03/28 01:58:57;;;;;;;;;;;;;;;7.68;100.00;98705.19;5027444;28;19960;-87
2021/03/28 02:01:38;;;;;;;;;;;;;;;7.69;100.00;98701.22;5016092;28;19940;-86
2021/03/28 02:04:20;;;;;;;;;;;;;;;7.68;100.00;98709.97;4997057;28;19931;-86
2021/03/28 02:07:07;;;;;;;;;;;;;;;7.68;100.00;98693.28;5026445;28;20015;-85
2021/03/28 02:09:40;;;;;;;;;;;;;;;7.63;100.00;98735.44;5012903;28;19932;-86
2021/03/28 02:12:11;;;;;;;;;;;;;;;7.60;100.00;98681.44;5026614;28;19932;-86
2021/03/28 02:14:42;;;;;;;;;;;;;;;7.56;100.00;98686.22;4996363;28;19936;-85
2021/03/28 02:17:25;;;;;;;;;;;;;;;7.56;100.00;98686.22;5007497;28;19972;-86
2021/03/28 02:20:09;;;;;;;;;;;;;;;7.52;100.00;98685.50;5005792;28;19960;-85
2021/03/28 02:22:43;;;;;;;;;;;;;;;7.55;100.00;98659.66;5003028;28;19932;-85
2021/03/28 02:25:22;;;;;;;;;;;;;;;7.54;100.00;98694.22;5064529;28;19973;-85
2021/03/28 02:27:54;;;;;;;;;;;;;;;7.58;100.00;98694.16;5077611;28;19928;-85
2021/03/28 02:30:40;;;;;;;;;;;;;;;7.60;100.00;98667.53;5076259;28;19924;-85
2021/03/28 02:33:16;;;;;;;;;;;;;;;7.61;100.00;98696.91;5096026;28;19924;-85
2021/03/28 02:35:47;;;;;;;;;;;;;;;7.66;100.00;98687.34;5083514;28;19942;-86
2021/03/28 02:38:19;;;;;;;;;;;;;;;7.68;100.00;98682.94;5076063;28;19925;-85
2021/03/28 02:40:50;;;;;;;;;;;;;;;7.64;100.00;98671.06;5043862;28;19930;-85
2021/03/28 02:43:52;;;;;;;;;;;;;;;7.64;100.00;98710.00;5116468;27;19923;-85
2021/03/28 02:46:24;;;;;;;;;;;;;;;7.61;100.00;98683.03;5016846;28;20323;-86
2021/03/28 02:49:09;;;;;;;;;;;;;;;7.61;100.00;98699.69;5055327;28;20334;-85
2021/03/28 02:51:49;;;;;;;;;;;;;;;7.58;100.00;98683.84;5055115;28;20376;-86
2021/03/28 02:54:25;;;;;;;;;;;;;;;7.58;100.00;98656.03;5022068;28;20011;-86
2021/03/28 02:57:15;;;;;;;;;;;;;;;7.58;100.00;98667.16;5054938;28;19925;-85
2021/03/28 02:59:52;;;;;;;;;;;;;;;7.57;100.00;98692.59;5071712;28;19931;-86
2021/03/28 03:02:19;;;;;;;;;;;;;;;7.59;100.00;98698.53;5038507;28;19970;-86
2021/03/28 03:04:46;;;;;;;;;;;;;;;7.60;100.00;98703.69;5038530;28;20344;-85
2021/03/28 03:07:18;;;;;;;;;;;;;;;7.59;100.00;98707.66;5038158;28;20062;-84
2021/03/28 03:10:03;;;;;;;;;;;;;;;7.59;100.00;98698.53;5048168;28;19932;-85
2021/03/28 03:12:34;;;;;;;;;;;;;;;7.61;100.00;98671.91;5042736;28;19925;-86
2021/03/28 03:15:06;;;;;;;;;;;;;;;7.56;100.00;98679.91;5071669;28;19997;-87
2021/03/28 03:17:58;;;;;;;;;;;;;;;7.56;100.00;98686.22;5054986;28;20002;-85
2021/03/28 03:20:25;;;;;;;;;;;;;;;7.54;100.00;98702.56;5083657;28;19935;-85
2021/03/28 03:23:07;;;;;;;;;;;;;;;7.57;100.00;98685.06;5123176;28;20026;-85
2021/03/28 03:25:35;;;;;;;;;;;;;;;7.56;100.00;98661.22;5096964;28;19946;-85
2021/03/28 03:28:11;;;;;;;;;;;;;;;7.53;100.00;98692.63;5116207;28;19923;-84
2021/03/28 03:30:56;;;;;;;;;;;;;;;7.53;100.00;98714.09;5086435;28;19924;-85
2021/03/28 03:33:38;;;;;;;;;;;;;;;7.55;100.00;98695.78;5079331;28;19923;-85
2021/03/28 03:36:37;;;;;;;;;;;;;;;7.56;100.00;98669.56;5113586;28;20026;-86
2021/03/28 03:39:22;;;;;;;;;;;;;;;7.58;100.00;98660.81;5095954;28;19924;-85
2021/03/28 03:42:09;;;;;;;;;;;;;;;7.55;100.00;98690.22;5096841;28;19924;-85
2021/03/28 03:44:57;;;;;;;;;;;;;;;7.57;100.00;98659.22;5116147;27;19923;-85
2021/03/28 03:47:32;;;;;;;;;;;;;;;7.62;100.00;98672.69;5071870;28;19947;-85
2021/03/28 03:50:14;;;;;;;;;;;;;;;7.60;100.00;98661.19;5098877;28;20366;-87
2021/03/28 03:52:43;;;;;;;;;;;;;;;7.65;100.00;98677.44;5066439;28;19923;-85
2021/03/28 03:55:16;;;;;;;;;;;;;;;7.63;100.00;98690.94;5101222;28;20298;-85
2021/03/28 03:57:52;;;;;;;;;;;;;;;7.69;100.00;98686.50;5090369;28;20400;-86
2021/03/28 04:00:24;;;;;;;;;;;;;;;7.71;100.00;98712.69;5105046;27;19942;-86
2021/03/28 04:03:15;;;;;;;;;;;;;;;7.76;100.00;98689.22;5103400;27;19923;-85
2021/03/28 04:05:44;;;;;;;;;;;;;;;7.76;100.00;98694.78;5117516;28;20567;-86
2021/03/28 04:08:40;;;;;;;;;;;;;;;7.74;100.00;98692.41;5093495;27;19931;-85
2021/03/28 04:11:22;;;;;;;;;;;;;;;7.75;100.00;98694.00;5109922;28;20310;-85
2021/03/28 04:14:07;;;;;;;;;;;;;;;7.74;100.00;98686.84;5082408;28;19935;-85
2021/03/28 04:16:34;;;;;;;;;;;;;;;7.72;100.00;98705.16;5112719;27;20412;-85
2021/03/28 04:19:08;;;;;;;;;;;;;;;7.70;100.00;98702.78;5084896;28;20623;-85
2021/03/28 04:21:43;;;;;;;;;;;;;;;7.73;100.00;98670.56;5100192;28;19923;-84
2021/03/28 04:24:19;;;;;;;;;;;;;;;7.75;100.00;98680.09;5102158;27;19924;-85
2021/03/28 04:26:45;;;;;;;;;;;;;;;7.76;100.00;98678.09;5106407;28;20280;-85
2021/03/28 04:29:13;;;;;;;;;;;;;;;7.78;100.00;98703.50;5086496;27;19923;-85
2021/03/28 04:31:40;;;;;;;;;;;;;;;7.79;100.00;98666.94;5094263;28;19969;-86
2021/03/28 04:34:14;;;;;;;;;;;;;;;7.80;100.00;98681.63;5097778;28;19924;-85
2021/03/28 04:36:47;;;;;;;;;;;;;;;7.81;100.00;98672.88;5118403;27;19928;-85
2021/03/28 04:39:20;;;;;;;;;;;;;;;7.79;100.00;98686.41;5088177;28;19930;-86
2021/03/28 04:41:53;;;;;;;;;;;;;;;7.79;100.00;98683.63;5088507;27;20018;-85
2021/03/28 04:44:29;;;;;;;;;;;;;;;7.79;100.00;98683.63;5105019;28;19924;-85
2021/03/28 04:47:08;;;;;;;;;;;;;;;7.78;100.00;98676.47;5095903;28;19924;-84
2021/03/28 04:49:41;;;;;;;;;;;;;;;7.82;100.00;98693.91;5081474;28;19924;-85
2021/03/28 04:52:26;;;;;;;;;;;;;;;7.83;100.00;98684.34;5103331;28;19924;-85
2021/03/28 04:54:58;;;;;;;;;;;;;;;7.86;100.00;98686.31;5093601;28;19931;-85
2021/03/28 04:57:25;;;;;;;;;;;;;;;7.89;100.00;98679.91;5098800;28;20406;-85
2021/03/28 05:00:15;;;;;;;;;;;;;;;7.91;100.00;98676.72;5093693;28;19923;-86
2021/03/28 05:03:00;;;;;;;;;;;;;;;7.91;100.00;98680.28;5072573;28;19932;-85
2021/03/28 05:05:28;;;;;;;;;;;;;;;7.94;100.00;98679.47;5057220;28;19964;-85
2021/03/28 05:08:03;;;;;;;;;;;;;;;7.95;100.00;98680.28;5023832;28;19924;-85
2021/03/28 05:10:33;;;;;;;;;;;;;;;7.91;100.00;98660.81;5057055;28;20078;-85
2021/03/28 05:13:18;;;;;;;;;;;;;;;7.96;100.00;98679.84;5040620;28;19967;-85
2021/03/28 05:15:59;;;;;;;;;;;;;;;7.99;100.00;98681.81;5073823;28;19928;-85
2021/03/28 05:18:44;;;;;;;;;;;;;;;7.96;100.00;98652.03;5056948;28;19924;-86
2021/03/28 05:21:23;;;;;;;;;;;;;;;8.03;100.00;98673.41;5040296;28;19931;-85
2021/03/28 05:24:20;;;;;;;;;;;;;;;8.05;100.00;98677.34;5056022;28;20476;-85
2021/03/28 05:26:46;;;;;;;;;;;;;;;8.05;100.00;98690.47;5040212;28;19931;-85
2021/03/28 05:29:48;;;;;;;;;;;;;;;8.07;100.00;98700.00;5073132;28;19924;-85
2021/03/28 05:32:18;;;;;;;;;;;;;;;8.07;100.00;98672.19;5040065;28;19968;-86
2021/03/28 05:35:10;;;;;;;;;;;;;;;8.09;100.00;98686.44;5042561;28;19928;-85
2021/03/28 05:37:55;;;;;;;;;;;;;;;8.08;100.00;98696.00;5039075;28;19932;-86
2021/03/28 05:40:37;;;;;;;;;;;;;;;8.10;100.00;98699.16;5060032;28;19923;-86
2021/03/28 05:43:07;;;;;;;;;;;;;;;8.08;100.00;98696.00;5108108;28;19924;-85
2021/03/28 05:45:49;;;;;;;;;;;;;;;8.06;100.00;98708.72;5116090;28;19924;-86
2021/03/28 05:48:24;;;;;;;;;;;;;;;8.09;100.00;98708.69;5094922;28;19924;-85
2021/03/28 05:50:57;;;;;;;;;;;;;;;8.11;100.00;98717.44;5118235;27;19927;-85
2021/03/28 05:53:40;;;;;;;;;;;;;;;8.09;100.00;98724.63;5113842;27;19927;-85
2021/03/28 05:56:14;;;;;;;;;;;;;;;8.09;100.00;98736.53;5087846;28;19930;-86
2021/03/28 05:58:56;;;;;;;;;;;;;;;8.07;100.00;98736.19;5077786;28;19923;-85
2021/03/28 06:01:25;;;;;;;;;;;;;;;8.13;100.00;98742.06;5069441;28;19924;-84
2021/03/28 06:04:08;;;;;;;;;;;;;;;8.16;100.00;98752.38;5104398;27;19934;-84
2021/03/28 06:06:57;;;;;;;;;;;;;;;8.19;100.00;98763.47;5132819;27;19923;-84
2021/03/28 06:09:32;;;;;;;;;;;;;;;8.23;100.00;98755.88;5105839;28;19924;-84
2021/03/28 06:11:59;;;;;;;;;;;;;;;8.22;100.00;98768.22;5077630;28;20022;-83
2021/03/28 06:14:26;;;;;;;;;;;;;;;8.23;100.00;98761.44;5096946;28;19924;-84
2021/03/28 06:17:04;;;;;;;;;;;;;;;8.26;100.00;98774.53;5096945;28;20007;-83
2021/03/28 06:19:37;;;;;;;;;;;;;;;8.29;100.00;98781.25;5089536;27;19930;-83
2021/03/28 06:22:22;;;;;;;;;;;;;;;8.29;100.00;98784.84;5115021;28;19935;-83
2021/03/28 06:25:03;;;;;;;;;;;;;;;8.31;100.00;98788.00;5097004;28;19960;-83
2021/03/28 06:27:55;;;;;;;;;;;;;;;8.35;100.00;98796.31;5081006;27;19961;-83
2021/03/28 06:30:30;;;;;;;;;;;;;;;8.36;100.00;98823.72;5124402;27;20370;-83
2021/03/28 06:33:15;;;;;;;;;;;;;;;8.42;100.00;98816.50;5115539;27;19923;-83
2021/03/28 06:36:01;;;;;;;;;;;;;;;8.46;100.00;98828.41;5099073;27;19923;-83
2021/03/28 06:38:42;;;;;;;;;;;;;;;8.47;100.00;98841.09;5116998;27;19924;-83
2021/03/28 06:41:28;;;;;;;;;;;;;;;8.47;100.00;98860.59;5131387;27;19924;-83
2021/03/28 06:44:03;;;;;;;;;;;;;;;8.51;100.00;98857.78;5114454;28;19957;-83
2021/03/28 06:46:59;;;;;;;;;;;;;;;8.52;100.00;98884.41;5117811;27;20611;-83
2021/03/28 06:49:55;;;;;;;;;;;;;;;8.53;100.00;98884.00;5125565;27;20021;-83
2021/03/28 06:52:40;;;;;;;;;;;;;;;8.59;100.00;98910.19;5079578;28;19931;-83
2021/03/28 06:55:19;;;;;;;;;;;;;;;8.65;100.00;98916.91;5079131;28;19924;-83
2021/03/28 06:58:04;;;;;;;;;;;;;;;8.70;100.00;98927.59;5095109;28;19924;-83
2021/03/28 07:00:50;;;;;;;;;;;;;;;8.71;100.00;98931.94;5085225;27;19924;-83
2021/03/28 07:03:34;;;;;;;;;;;;;;;8.76;100.00;98937.06;5083653;28;19974;-83
2021/03/28 07:06:05;;;;;;;;;;;;;;;8.81;100.00;98958.91;5114476;28;19928;-83
2021/03/28 07:08:36;;;;;;;;;;;;;;;8.81;100.00;98956.13;5106295;28;20000;-84
2021/03/28 07:11:21;;;;;;;;;;;;;;;8.85;100.00;98976.38;5083483;28;19924;-83
2021/03/28 07:13:56;;;;;;;;;;;;;;;8.86;100.00;98980.75;5080260;28;20011;-83
2021/03/28 07:16:41;;;;;;;;;;;;;;;8.89;100.00;98981.94;5123327;27;19924;-83
2021/03/28 07:19:17;;;;;;;;;;;;;;;8.92;100.00;98984.66;5102844;28;19923;-83
2021/03/28 07:21:50;;;;;;;;;;;;;;;8.96;100.00;98999.34;5111272;28;20297;-83
2021/03/28 07:24:26;;;;;;;;;;;;;;;9.02;100.00;98994.91;5125974;28;19927;-83
2021/03/28 07:27:17;;;;;;;;;;;;;;;9.09;100.00;99011.53;5109247;28;20012;-83
2021/03/28 07:30:16;;;;;;;;;;;;;;;9.10;100.00;99010.34;5101507;28;20359;-78
2021/03/28 07:33:15;;;;;;;;;;;;;;;9.22;100.00;99013.81;5094229;28;19966;-84
2021/03/28 07:36:00;;;;;;;;;;;;;;;9.32;100.00;99024.03;5093899;28;19923;-85
2021/03/28 07:38:46;;;;;;;;;;;;;;;9.33;100.00;99031.22;5114100;28;19924;-84
2021/03/28 07:41:30;;;;;;;;;;;;;;;9.34;100.00;99030.78;5112079;28;19923;-84
2021/03/28 07:43:57;;;;;;;;;;;;;;;9.35;100.00;99025.97;5134411;28;20251;-84
2021/03/28 07:46:32;;;;;;;;;;;;;;;9.37;100.00;99040.31;5120302;28;19927;-85
2021/03/28 07:49:06;;;;;;;;;;;;;;;9.43;100.00;99033.06;5112840;28;20022;-84
2021/03/28 07:51:33;;;;;;;;;;;;;;;9.49;100.00;99045.34;5096929;28;20015;-84
2021/03/28 07:54:16;;;;;;;;;;;;;;;9.45;100.00;99055.75;5106530;28;19931;-85
2021/03/28 07:56:43;;;;;;;;;;;;;;;9.51;100.00;99049.28;5090738;28;19946;-85
2021/03/28 07:59:29;;;;;;;;;;;;;;;9.57;100.00;99061.59;5135020;28;20018;-85
2021/03/28 08:02:14;;;;;;;;;;;;;;;9.60;100.00;99062.75;5102026;28;19931;-85
2021/03/28 08:04:59;;;;;;;;;;;;;;;9.65;100.00;99059.50;5134361;28;19923;-85
2021/03/28 08:07:45;;;;;;;;;;;;;;;9.70;100.00;99068.19;5134462;28;20004;-84
2021/03/28 08:10:17;;;;;;;;;;;;;;;9.78;100.00;99071.69;5134317;28;19924;-85
2021/03/28 08:12:47;;;;;;;;;;;;;;;9.73;100.00;99075.72;5115144;28;19927;-85
2021/03/28 08:15:19;;;;;;;;;;;;;;;9.78;100.00;99075.28;5084186;28;19923;-85
2021/03/28 08:17:52;;;;;;;;;;;;;;;9.79;100.00;99067.69;5094074;28;19927;-85
2021/03/28 08:20:20;;;;;;;;;;;;;;;9.85;100.00;99074.38;5087901;28;19938;-82
2021/03/28 08:22:47;;;;;;;;;;;;;;;9.86;100.00;99070.41;5112775;28;19938;-82
2021/03/28 08:25:14;;;;;;;;;;;;;;;9.88;100.00;99067.97;5112747;28;19924;-82
2021/03/28 08:27:40;;;;;;;;;;;;;;;9.89;100.00;99075.16;5113419;28;20426;-82
2021/03/28 08:30:34;;;;;;;;;;;;;;;9.94;100.00;99078.25;5117028;28;19930;-82
2021/03/28 08:33:24;;;;;;;;;;;;;;;9.98;100.00;99083.78;5059456;27;19937;-83
2021/03/28 08:36:14;;;;;;;;;;;;;;;9.94;100.00;99083.03;5099925;27;20268;-81
2021/03/28 08:38:55;;;;;;;;;;;;;;;10.01;100.00;99083.72;5022868;28;20740;-82
2021/03/28 08:41:31;;;;;;;;;;;;;;;10.09;100.00;99099.22;5018034;28;19931;-82
2021/03/28 08:44:18;;;;;;;;;;;;;;;10.16;100.00;99093.53;5051046;28;20403;-82
2021/03/28 08:46:45;;;;;;;;;;;;;;;10.26;100.00;99094.59;5020595;28;19932;-81
2021/03/28 08:49:30;;;;;;;;;;;;;;;10.40;100.00;99097.19;5038148;28;19996;-83
2021/03/28 08:52:15;;;;;;;;;;;;;;;10.44;100.00;99106.28;5048148;28;20334;-83
2021/03/28 08:54:41;;;;;;;;;;;;;;;10.52;100.00;99111.38;5049408;28;20067;-82
2021/03/28 08:57:14;;;;;;;;;;;;;;;10.57;100.00;99110.09;5070477;28;19931;-85
2021/03/28 08:59:50;;;;;;;;;;;;;;;10.63;100.00;99114.00;5005562;28;19932;-84
2021/03/28 09:02:19;;;;;;;;;;;;;;;10.62;100.00;99118.00;5008771;28;19924;-84
2021/03/28 09:04:52;;;;;;;;;;;;;;;10.70;100.00;99120.28;5024630;28;20420;-85
2021/03/28 09:07:32;;;;;;;;;;;;;;;10.67;100.00;99126.69;5036965;28;19929;-85
2021/03/28 09:10:04;;;;;;;;;;;;;;;10.73;100.00;99124.22;5035053;28;19925;-85
2021/03/28 09:12:37;;;;;;;;;;;;;;;10.87;100.00;99129.59;5021932;28;19932;-84
2021/03/28 09:15:13;;;;;;;;;;;;;;;10.87;100.00;99124.00;5054520;27;19941;-84
2021/03/28 09:17:51;;;;;;;;;;;;;;;10.90;100.00;99145.50;5105162;28;19934;-84
2021/03/28 09:20:30;;;;;;;;;;;;;;;10.87;100.00;99135.94;5106265;27;19959;-84
2021/03/28 09:23:14;;;;;;;;;;;;;;;10.85;100.00;99155.16;5111920;27;19924;-84
2021/03/28 09:25:43;;;;;;;;;;;;;;;10.90;100.00;99137.13;5126504;27;19924;-85
2021/03/28 09:28:29;;;;;;;;;;;;;;;10.94;100.00;99147.03;5120894;27;20298;-83
2021/03/28 09:31:11;;;;;;;;;;;;;;;10.96;100.00;99150.19;5104973;28;19954;-83
2021/03/28 09:33:50;;;;;;;;;;;;;;;11.06;100.00;99140.03;5128068;27;19981;-84
2021/03/28 09:36:36;;;;;;;;;;;;;;;11.06;100.00;99151.22;5113855;28;19956;-85
2021/03/28 09:39:17;;;;;;;;;;;;;;;10.98;100.00;99158.13;5083017;28;20338;-85
2021/03/28 09:42:04;;;;;;;;;;;;;;;11.03;100.00;99160.47;5115479;28;19928;-84
2021/03/28 09:44:30;;;;;;;;;;;;;;;11.11;100.00;99158.34;5097800;28;19924;-84
2021/03/28 09:47:25;;;;;;;;;;;;;;;11.07;100.00;99160.41;5116486;28;20004;-83
2021/03/28 09:50:10;;;;;;;;;;;;;;;11.06;100.00;99156.81;5130450;27;19935;-84
2021/03/28 09:52:45;;;;;;;;;;;;;;;11.04;100.00;99162.06;5105547;27;19931;-83
2021/03/28 09:55:32;;;;;;;;;;;;;;;11.01;100.00;99162.13;5100267;28;20024;-85
2021/03/28 09:58:02;;;;;;;;;;;;;;;10.89;100.00;99160.69;5102009;27;19927;-84
2021/03/28 10:00:41;;;;;;;;;;;;;;;10.93;100.00;99170.59;5120622;27;19923;-83
2021/03/28 10:03:23;;;;;;;;;;;;;;;10.89;100.00;99191.44;5107687;27;20638;-84
2021/03/28 10:05:58;;;;;;;;;;;;;;;10.81;100.00;99171.19;5088014;28;19927;-85
2021/03/28 10:08:25;;;;;;;;;;;;;;;10.79;100.00;99161.66;5122384;27;19927;-85
2021/03/28 10:11:04;;;;;;;;;;;;;;;10.77;100.00;99178.84;5109508;28;20305;-85
2021/03/28 10:13:49;;;;;;;;;;;;;;;10.78;100.00;99174.06;5075177;27;20386;-85
2021/03/28 10:16:17;;;;;;;;;;;;;;;10.80;100.00;99171.59;5115581;28;19938;-85
2021/03/28 10:18:59;;;;;;;;;;;;;;;10.87;100.00;99177.88;5096744;28;19927;-86
2021/03/28 10:21:45;;;;;;;;;;;;;;;11.05;100.00;99180.41;5096354;28;19924;-85
2021/03/28 10:24:27;;;;;;;;;;;;;;;11.03;100.00;99187.66;5079932;28;20325;-85
2021/03/28 10:27:05;;;;;;;;;;;;;;;11.13;100.00;99169.91;5124499;27;19924;-84
2021/03/28 10:29:50;;;;;;;;;;;;;;;11.32;100.00;99183.94;5080075;28;19931;-86
2021/03/28 10:32:25;;;;;;;;;;;;;;;11.46;100.00;99171.72;5104182;28;19924;-86
2021/03/28 10:35:08;;;;;;;;;;;;;;;11.51;100.00;99180.41;5096148;28;20403;-86
2021/03/28 10:37:46;;;;;;;;;;;;;;;11.41;100.00;99184.19;5094187;28;19936;-86
2021/03/28 10:40:13;;;;;;;;;;;;;;;11.39;100.00;99183.81;5114029;28;20383;-86
2021/03/28 10:42:43;;;;;;;;;;;;;;;11.41;100.00;99170.19;5096148;28;19935;-86
2021/03/28 10:45:15;;;;;;;;;;;;;;;11.45;100.00;99168.13;5096066;27;19928;-86
2021/03/28 10:48:01;;;;;;;;;;;;;;;11.39;100.00;99160.66;5085507;28;19924;-85
2021/03/28 10:50:46;;;;;;;;;;;;;;;11.35;100.00;99171.13;5109538;28;19924;-85
2021/03/28 10:53:18;;;;;;;;;;;;;;;11.37;100.00;99182.69;5101355;27;20386;-85
2021/03/28 10:56:04;;;;;;;;;;;;;;;11.40;100.00;99168.63;5114626;27;19924;-86
2021/03/28 10:58:30;;;;;;;;;;;;;;;11.56;100.00;99165.94;5115960;27;19932;-86
2021/03/28 11:01:06;;;;;;;;;;;;;;;11.64;100.00;99173.03;5080948;28;20015;-87
2021/03/28 11:04:06;;;;;;;;;;;;;;;11.62;100.00;99169.84;5090955;28;19923;-86
2021/03/28 11:06:55;;;;;;;;;;;;;;;11.81;100.00;99162.72;5065319;27;19924;-86
2021/03/28 11:09:23;;;;;;;;;;;;;;;11.90;100.00;99158.13;5116900;27;19924;-85
2021/03/28 11:12:07;;;;;;;;;;;;;;;12.15;100.00;99152.78;5121267;27;20339;-85
2021/03/28 11:14:37;;;;;;;;;;;;;;;12.35;100.00;99150.78;5101261;27;19923;-84
2021/03/28 11:17:22;;;;;;;;;;;;;;;12.40;100.00;99136.22;5074594;27;19924;-83
2021/03/28 11:20:15;;;;;;;;;;;;;;;12.29;100.00;99132.91;5103184;28;20104;-82
2021/03/28 11:23:01;;;;;;;;;;;;;;;12.16;100.00;99126.34;5105086;28;19930;-84
2021/03/28 11:25:35;;;;;;;;;;;;;;;12.17;100.00;99105.53;5095762;28;19924;-85
2021/03/28 11:28:31;;;;;;;;;;;;;;;12.23;100.00;99106.63;5090754;28;20271;-84
2021/03/28 11:31:07;;;;;;;;;;;;;;;12.22;100.00;99077.00;5108524;28;19970;-84
2021/03/28 11:33:36;;;;;;;;;;;;;;;12.42;100.00;99076.94;5089168;28;20017;-84
2021/03/28 11:36:09;;;;;;;;;;;;;;;12.66;100.00;99037.13;5119274;28;20358;-84
2021/03/28 11:38:42;;;;;;;;;;;;;;;12.82;100.00;99041.16;5102822;28;20004;-84
2021/03/28 11:41:12;;;;;;;;;;;;;;;12.77;100.00;99026.44;5095747;28;19924;-85
2021/03/28 11:43:40;;;;;;;;;;;;;;;12.81;100.00;99033.97;5078788;28;20399;-83
2021/03/28 11:46:27;;;;;;;;;;;;;;;12.86;100.00;99020.22;5121435;28;19924;-82
2021/03/28 11:48:54;;;;;;;;;;;;;;;12.96;100.00;99021.16;5088798;28;20389;-84
2021/03/28 11:51:36;;;;;;;;;;;;;;;12.94;100.00;99012.41;5119353;28;20488;-84
2021/03/28 11:54:09;;;;;;;;;;;;;;;12.95;100.00;98989.53;5096919;28;19924;-82
2021/03/28 11:56:36;;;;;;;;;;;;;;;12.91;100.00;98993.66;5079568;28;19924;-81
2021/03/28 11:59:08;;;;;;;;;;;;;;;12.81;100.00;98998.31;5113325;28;19959;-82
2021/03/28 12:01:53;;;;;;;;;;;;;;;12.85;100.00;98987.00;5091830;28;19923;-82
2021/03/28 12:04:34;;;;;;;;;;;;;;;12.93;100.00;98994.00;5124153;27;19951;-82
2021/03/28 12:07:19;;;;;;;;;;;;;;;12.87;100.00;98984.56;5129942;27;20301;-82
2021/03/28 12:09:51;;;;;;;;;;;;;;;13.18;100.00;98982.91;5117600;27;19977;-82
2021/03/28 12:12:24;;;;;;;;;;;;;;;13.37;100.00;98963.16;5106717;27;19924;-82
2021/03/28 12:14:51;;;;;;;;;;;;;;;13.45;100.00;98967.31;5105923;27;19931;-81
2021/03/28 12:17:19;;;;;;;;;;;;;;;13.56;100.00;98975.41;5073596;28;20298;-82
2021/03/28 12:19:55;;;;;;;;;;;;;;;13.27;100.00;98981.06;5124179;27;19924;-81
2021/03/28 12:22:30;;;;;;;;;;;;;;;13.24;100.00;98969.97;5098824;28;19992;-81
2021/03/28 12:25:12;;;;;;;;;;;;;;;13.15;100.00;98966.97;5108172;27;20367;-82
2021/03/28 12:27:48;;;;;;;;;;;;;;;13.01;100.00;98973.00;5126354;27;20487;-82
2021/03/28 12:30:27;;;;;;;;;;;;;;;13.04;100.00;98989.72;5102315;27;20010;-82
2021/03/28 12:33:06;;;;;;;;;;;;;;;13.04;100.00;98972.88;5102745;27;19923;-83
2021/03/28 12:35:39;;;;;;;;;;;;;;;13.02;100.00;98969.75;5098446;28;20014;-82
2021/03/28 12:38:24;;;;;;;;;;;;;;;13.14;100.00;98977.44;5113130;28;19931;-82
2021/03/28 12:41:11;;;;;;;;;;;;;;;13.16;100.00;98963.72;5103891;27;19950;-82
2021/03/28 12:43:41;;;;;;;;;;;;;;;13.18;100.00;98972.50;5108968;27;20425;-82
2021/03/28 12:46:26;;;;;;;;;;;;;;;13.28;100.00;98971.44;5099752;28;19931;-82
2021/03/28 12:49:09;;;;;;;;;;;;;;;13.16;100.00;98960.91;5121658;27;19923;-80
2021/03/28 12:51:41;;;;;;;;;;;;;;;13.09;100.00;98979.97;5121808;27;19927;-80
2021/03/28 12:54:17;;;;;;;;;;;;;;;13.12;100.00;98977.06;5099745;27;19927;-80
2021/03/28 12:56:47;;;;;;;;;;;;;;;13.22;100.00;98966.78;5119532;27;19949;-79
2021/03/28 12:59:32;;;;;;;;;;;;;;;13.19;100.00;98939.63;5119212;27;20015;-80
2021/03/28 13:02:14;;;;;;;;;;;;;;;13.25;100.00;98937.84;5126876;27;19947;-80
2021/03/28 13:04:47;;;;;;;;;;;;;;;13.35;100.00;98928.31;5110183;27;19923;-80
2021/03/28 13:07:32;;;;;;;;;;;;;;;13.42;100.00;98922.53;5121483;27;19928;-80
2021/03/28 13:09:59;;;;;;;;;;;;;;;13.34;100.00;98918.34;5118792;27;19924;-81
2021/03/28 13:12:27;;;;;;;;;;;;;;;13.43;100.00;98913.66;5103520;28;19973;-81
2021/03/28 13:15:09;;;;;;;;;;;;;;;13.63;100.00;98928.25;5124844;27;19924;-81
2021/03/28 13:17:37;;;;;;;;;;;;;;;13.63;100.00;98921.88;5101724;27;19963;-80
2021/03/28 13:20:14;;;;;;;;;;;;;;;13.67;100.00;98930.97;5122010;27;19931;-80
2021/03/28 13:22:43;;;;;;;;;;;;;;;13.67;100.00;98914.94;5116003;28;19955;-81
2021/03/28 13:25:16;;;;;;;;;;;;;;;13.65;100.00;98917.38;5108261;27;19964;-81
2021/03/28 13:27:44;;;;;;;;;;;;;;;13.71;100.00;98923.22;5097463;28;19931;-79
2021/03/28 13:30:25;;;;;;;;;;;;;;;13.85;100.00;98940.44;5115475;28;19961;-79
2021/03/28 13:32:52;;;;;;;;;;;;;;;13.98;100.00;98929.22;5101569;28;19923;-79
2021/03/28 13:35:25;;;;;;;;;;;;;;;13.90;100.00;98934.25;5096198;27;19928;-79
2021/03/28 13:37:54;;;;;;;;;;;;;;;13.91;100.00;98943.47;5115034;27;20019;-79